KMUT

Muscatine Municipal Airport

Muscatine, Iowa, USA
METAR KMUT 220955Z AUTO 00000KT 4SM BR FEW038 14/14 A3000 RMK AO2 PNO
Observed Flight Rules
May-22 @ 09:55 UTC (17 minutes ago) Marginal Visual Flight Rules
Visibility Clouds Conditions
4 miles
  • Few at 3,800' AGL
  • Mist
Temperatures Readings
Current 14°C / 57°F
Dewpoint 14°C / 57°F
Humidity 100%
Altimeter 30" Hg
Pressure 1016 hPa
Elevation 167
METAR KMUT 220955Z AUTO 00000KT 4SM BR FEW038 14/14 A3000 RMK AO2 PNO
Observed Flight Rules
May-22 @ 09:55 UTC
(17 minutes ago)
MVFR
Clouds
  • Few at 3,800' AGL
Conditions
  • Mist
Temperature Dewpoint
14°C / 57°F 14°C / 57°F
Humidity Altimeter Pressure
100% 30" Hg 1016 hPa